sensor_id;sensor_type;location;lat;lon;timestamp;P1;durP1;ratioP1;P2;durP2;ratioP2
29774;SDS011;16676;51.202;6.774;2024-01-25T00:01:01;10.00;;;3.58;;
29774;SDS011;16676;51.202;6.774;2024-01-25T00:05:04;8.82;;;3.65;;
29774;SDS011;16676;51.202;6.774;2024-01-25T00:09:07;9.85;;;3.92;;
29774;SDS011;16676;51.202;6.774;2024-01-25T00:13:09;8.95;;;3.78;;
29774;SDS011;16676;51.202;6.774;2024-01-25T00:17:12;11.55;;;3.90;;
29774;SDS011;16676;51.202;6.774;2024-01-25T00:21:14;10.73;;;3.92;;
29774;SDS011;16676;51.202;6.774;2024-01-25T00:25:16;9.70;;;4.13;;
29774;SDS011;16676;51.202;6.774;2024-01-25T00:29:18;9.00;;;3.50;;
29774;SDS011;16676;51.202;6.774;2024-01-25T00:33:21;12.13;;;3.88;;
29774;SDS011;16676;51.202;6.774;2024-01-25T00:37:24;12.88;;;4.47;;
29774;SDS011;16676;51.202;6.774;2024-01-25T00:41:26;8.70;;;3.83;;
29774;SDS011;16676;51.202;6.774;2024-01-25T00:45:31;10.07;;;3.70;;
29774;SDS011;16676;51.202;6.774;2024-01-25T00:49:34;8.77;;;3.72;;
29774;SDS011;16676;51.202;6.774;2024-01-25T00:53:37;10.25;;;3.58;;
29774;SDS011;16676;51.202;6.774;2024-01-25T00:57:39;8.77;;;3.42;;
29774;SDS011;16676;51.202;6.774;2024-01-25T01:01:42;7.70;;;3.40;;
29774;SDS011;16676;51.202;6.774;2024-01-25T01:05:49;11.30;;;3.75;;
29774;SDS011;16676;51.202;6.774;2024-01-25T01:09:51;10.05;;;4.00;;
29774;SDS011;16676;51.202;6.774;2024-01-25T01:13:53;9.70;;;3.30;;
29774;SDS011;16676;51.202;6.774;2024-01-25T01:17:55;9.95;;;3.58;;
29774;SDS011;16676;51.202;6.774;2024-01-25T01:21:58;8.65;;;3.63;;
29774;SDS011;16676;51.202;6.774;2024-01-25T01:26:00;10.20;;;3.80;;
29774;SDS011;16676;51.202;6.774;2024-01-25T01:30:02;9.63;;;3.90;;
29774;SDS011;16676;51.202;6.774;2024-01-25T01:34:05;7.13;;;3.28;;
29774;SDS011;16676;51.202;6.774;2024-01-25T01:38:08;8.00;;;3.50;;
29774;SDS011;16676;51.202;6.774;2024-01-25T01:42:10;8.35;;;3.53;;
29774;SDS011;16676;51.202;6.774;2024-01-25T01:46:15;7.63;;;3.38;;
29774;SDS011;16676;51.202;6.774;2024-01-25T01:50:27;9.55;;;3.53;;
29774;SDS011;16676;51.202;6.774;2024-01-25T01:54:30;9.18;;;3.05;;
29774;SDS011;16676;51.202;6.774;2024-01-25T01:58:32;11.48;;;3.50;;
29774;SDS011;16676;51.202;6.774;2024-01-25T02:02:34;11.57;;;3.00;;
29774;SDS011;16676;51.202;6.774;2024-01-25T02:06:37;9.95;;;3.78;;
29774;SDS011;16676;51.202;6.774;2024-01-25T02:10:40;10.18;;;3.30;;
29774;SDS011;16676;51.202;6.774;2024-01-25T02:14:43;8.55;;;3.00;;
29774;SDS011;16676;51.202;6.774;2024-01-25T02:18:45;11.52;;;3.45;;
29774;SDS011;16676;51.202;6.774;2024-01-25T02:22:49;9.68;;;3.08;;
29774;SDS011;16676;51.202;6.774;2024-01-25T02:26:51;9.38;;;3.45;;
29774;SDS011;16676;51.202;6.774;2024-01-25T02:30:53;7.38;;;2.85;;
29774;SDS011;16676;51.202;6.774;2024-01-25T02:34:55;8.80;;;3.45;;
29774;SDS011;16676;51.202;6.774;2024-01-25T02:38:58;8.35;;;2.95;;
29774;SDS011;16676;51.202;6.774;2024-01-25T02:43:00;10.00;;;3.20;;
29774;SDS011;16676;51.202;6.774;2024-01-25T02:47:02;7.95;;;3.10;;
29774;SDS011;16676;51.202;6.774;2024-01-25T02:51:04;8.38;;;3.15;;
29774;SDS011;16676;51.202;6.774;2024-01-25T02:55:07;6.60;;;2.80;;
29774;SDS011;16676;51.202;6.774;2024-01-25T02:59:09;6.63;;;2.70;;
29774;SDS011;16676;51.202;6.774;2024-01-25T03:03:11;7.05;;;2.75;;
29774;SDS011;16676;51.202;6.774;2024-01-25T03:07:13;8.10;;;3.05;;
29774;SDS011;16676;51.202;6.774;2024-01-25T03:11:16;7.88;;;2.97;;
29774;SDS011;16676;51.202;6.774;2024-01-25T03:15:18;6.95;;;2.65;;
29774;SDS011;16676;51.202;6.774;2024-01-25T03:19:20;7.75;;;2.72;;
29774;SDS011;16676;51.202;6.774;2024-01-25T03:23:25;8.25;;;3.47;;
29774;SDS011;16676;51.202;6.774;2024-01-25T03:27:28;7.82;;;3.05;;
29774;SDS011;16676;51.202;6.774;2024-01-25T03:31:30;6.78;;;2.90;;
29774;SDS011;16676;51.202;6.774;2024-01-25T03:35:32;5.85;;;2.97;;
29774;SDS011;16676;51.202;6.774;2024-01-25T03:39:34;5.15;;;2.80;;
29774;SDS011;16676;51.202;6.774;2024-01-25T03:43:37;5.70;;;2.75;;
29774;SDS011;16676;51.202;6.774;2024-01-25T03:47:39;6.72;;;2.75;;
29774;SDS011;16676;51.202;6.774;2024-01-25T03:51:41;7.60;;;2.45;;
29774;SDS011;16676;51.202;6.774;2024-01-25T03:55:43;8.63;;;3.05;;
29774;SDS011;16676;51.202;6.774;2024-01-25T03:59:46;8.88;;;3.10;;
29774;SDS011;16676;51.202;6.774;2024-01-25T04:03:50;6.57;;;2.60;;
29774;SDS011;16676;51.202;6.774;2024-01-25T04:07:51;7.38;;;2.90;;
29774;SDS011;16676;51.202;6.774;2024-01-25T04:11:54;8.00;;;3.33;;
29774;SDS011;16676;51.202;6.774;2024-01-25T04:15:58;6.88;;;2.85;;
29774;SDS011;16676;51.202;6.774;2024-01-25T04:20:00;6.53;;;2.63;;
29774;SDS011;16676;51.202;6.774;2024-01-25T04:24:02;7.82;;;3.15;;
29774;SDS011;16676;51.202;6.774;2024-01-25T04:28:04;5.95;;;2.60;;
29774;SDS011;16676;51.202;6.774;2024-01-25T04:32:08;5.72;;;2.42;;
29774;SDS011;16676;51.202;6.774;2024-01-25T04:36:09;7.22;;;2.60;;
29774;SDS011;16676;51.202;6.774;2024-01-25T04:40:11;6.38;;;2.72;;
29774;SDS011;16676;51.202;6.774;2024-01-25T04:44:13;5.47;;;2.42;;
29774;SDS011;16676;51.202;6.774;2024-01-25T04:48:17;4.95;;;2.15;;
29774;SDS011;16676;51.202;6.774;2024-01-25T04:52:18;5.38;;;2.65;;
29774;SDS011;16676;51.202;6.774;2024-01-25T04:56:20;7.18;;;2.90;;
29774;SDS011;16676;51.202;6.774;2024-01-25T05:00:22;5.82;;;2.67;;
29774;SDS011;16676;51.202;6.774;2024-01-25T05:04:27;5.30;;;2.30;;
29774;SDS011;16676;51.202;6.774;2024-01-25T05:08:31;7.10;;;2.77;;
29774;SDS011;16676;51.202;6.774;2024-01-25T05:12:33;8.32;;;2.45;;
29774;SDS011;16676;51.202;6.774;2024-01-25T05:16:35;4.72;;;2.35;;
29774;SDS011;16676;51.202;6.774;2024-01-25T05:20:39;6.45;;;2.60;;
29774;SDS011;16676;51.202;6.774;2024-01-25T05:24:40;5.22;;;2.70;;
29774;SDS011;16676;51.202;6.774;2024-01-25T05:28:42;6.45;;;2.72;;
29774;SDS011;16676;51.202;6.774;2024-01-25T05:32:44;6.78;;;2.78;;
29774;SDS011;16676;51.202;6.774;2024-01-25T05:36:50;8.70;;;3.03;;
29774;SDS011;16676;51.202;6.774;2024-01-25T05:40:52;6.10;;;2.67;;
29774;SDS011;16676;51.202;6.774;2024-01-25T05:44:53;6.57;;;2.67;;
29774;SDS011;16676;51.202;6.774;2024-01-25T05:48:55;7.50;;;2.63;;
29774;SDS011;16676;51.202;6.774;2024-01-25T05:52:59;6.28;;;2.70;;
29774;SDS011;16676;51.202;6.774;2024-01-25T05:57:01;6.20;;;2.85;;
29774;SDS011;16676;51.202;6.774;2024-01-25T06:01:04;7.40;;;3.15;;
29774;SDS011;16676;51.202;6.774;2024-01-25T06:05:06;7.05;;;2.72;;
29774;SDS011;16676;51.202;6.774;2024-01-25T06:09:10;7.43;;;2.75;;
29774;SDS011;16676;51.202;6.774;2024-01-25T06:13:12;8.65;;;2.70;;
29774;SDS011;16676;51.202;6.774;2024-01-25T06:17:13;6.32;;;2.47;;
29774;SDS011;16676;51.202;6.774;2024-01-25T06:21:15;6.53;;;2.50;;
29774;SDS011;16676;51.202;6.774;2024-01-25T06:25:19;8.25;;;2.60;;
29774;SDS011;16676;51.202;6.774;2024-01-25T06:29:20;8.35;;;2.70;;
29774;SDS011;16676;51.202;6.774;2024-01-25T06:33:22;5.43;;;2.38;;
29774;SDS011;16676;51.202;6.774;2024-01-25T06:37:24;8.93;;;2.78;;
29774;SDS011;16676;51.202;6.774;2024-01-25T06:41:28;8.15;;;3.08;;
29774;SDS011;16676;51.202;6.774;2024-01-25T06:45:29;6.38;;;2.50;;
29774;SDS011;16676;51.202;6.774;2024-01-25T06:49:31;15.48;;;3.20;;
29774;SDS011;16676;51.202;6.774;2024-01-25T06:53:33;8.85;;;2.63;;
29774;SDS011;16676;51.202;6.774;2024-01-25T06:57:37;8.73;;;3.00;;
29774;SDS011;16676;51.202;6.774;2024-01-25T07:01:39;10.75;;;2.75;;
29774;SDS011;16676;51.202;6.774;2024-01-25T07:05:41;8.90;;;2.72;;
29774;SDS011;16676;51.202;6.774;2024-01-25T07:09:43;10.73;;;3.22;;
29774;SDS011;16676;51.202;6.774;2024-01-25T07:13:46;11.57;;;2.63;;
29774;SDS011;16676;51.202;6.774;2024-01-25T07:17:48;9.35;;;2.47;;
29774;SDS011;16676;51.202;6.774;2024-01-25T07:21:50;7.95;;;2.53;;
29774;SDS011;16676;51.202;6.774;2024-01-25T07:25:52;32.45;;;5.53;;
29774;SDS011;16676;51.202;6.774;2024-01-25T07:29:55;29.85;;;6.28;;
29774;SDS011;16676;51.202;6.774;2024-01-25T07:33:57;30.13;;;6.75;;
29774;SDS011;16676;51.202;6.774;2024-01-25T07:37:59;38.17;;;7.78;;
29774;SDS011;16676;51.202;6.774;2024-01-25T07:42:01;36.55;;;7.68;;
29774;SDS011;16676;51.202;6.774;2024-01-25T07:46:04;35.70;;;7.72;;
29774;SDS011;16676;51.202;6.774;2024-01-25T07:50:06;37.50;;;7.85;;
29774;SDS011;16676;51.202;6.774;2024-01-25T07:54:09;41.20;;;8.38;;
29774;SDS011;16676;51.202;6.774;2024-01-25T07:58:11;34.75;;;8.10;;
29774;SDS011;16676;51.202;6.774;2024-01-25T08:02:14;38.08;;;7.80;;
29774;SDS011;16676;51.202;6.774;2024-01-25T08:06:17;34.08;;;7.93;;
29774;SDS011;16676;51.202;6.774;2024-01-25T08:10:19;42.63;;;7.93;;
29774;SDS011;16676;51.202;6.774;2024-01-25T08:14:21;31.35;;;6.78;;
29774;SDS011;16676;51.202;6.774;2024-01-25T08:18:24;33.33;;;8.00;;
29774;SDS011;16676;51.202;6.774;2024-01-25T08:22:29;27.48;;;6.60;;
29774;SDS011;16676;51.202;6.774;2024-01-25T08:26:31;27.50;;;6.03;;
29774;SDS011;16676;51.202;6.774;2024-01-25T08:30:34;20.50;;;5.57;;
29774;SDS011;16676;51.202;6.774;2024-01-25T08:34:38;21.85;;;5.32;;
29774;SDS011;16676;51.202;6.774;2024-01-25T08:38:40;20.30;;;5.60;;
29774;SDS011;16676;51.202;6.774;2024-01-25T08:42:42;27.95;;;6.30;;
29774;SDS011;16676;51.202;6.774;2024-01-25T08:46:44;17.92;;;4.70;;
29774;SDS011;16676;51.202;6.774;2024-01-25T08:50:48;22.33;;;5.65;;
29774;SDS011;16676;51.202;6.774;2024-01-25T08:54:53;23.20;;;5.30;;
29774;SDS011;16676;51.202;6.774;2024-01-25T08:58:55;22.25;;;5.65;;
29774;SDS011;16676;51.202;6.774;2024-01-25T09:02:57;15.05;;;4.60;;
29774;SDS011;16676;51.202;6.774;2024-01-25T09:07:00;18.40;;;5.13;;
29774;SDS011;16676;51.202;6.774;2024-01-25T09:11:03;14.93;;;4.68;;
29774;SDS011;16676;51.202;6.774;2024-01-25T09:15:05;16.95;;;5.03;;
29774;SDS011;16676;51.202;6.774;2024-01-25T09:19:08;14.75;;;4.45;;
29774;SDS011;16676;51.202;6.774;2024-01-25T09:23:11;15.85;;;4.50;;
29774;SDS011;16676;51.202;6.774;2024-01-25T09:27:14;11.88;;;4.05;;
29774;SDS011;16676;51.202;6.774;2024-01-25T09:31:16;12.65;;;3.92;;
29774;SDS011;16676;51.202;6.774;2024-01-25T09:35:18;13.25;;;4.18;;
29774;SDS011;16676;51.202;6.774;2024-01-25T09:39:21;13.30;;;3.95;;
29774;SDS011;16676;51.202;6.774;2024-01-25T09:43:23;10.57;;;3.85;;
29774;SDS011;16676;51.202;6.774;2024-01-25T09:47:25;11.82;;;4.20;;
29774;SDS011;16676;51.202;6.774;2024-01-25T09:51:27;12.00;;;3.97;;
29774;SDS011;16676;51.202;6.774;2024-01-25T09:55:32;11.00;;;3.88;;
29774;SDS011;16676;51.202;6.774;2024-01-25T09:59:35;8.50;;;3.60;;
29774;SDS011;16676;51.202;6.774;2024-01-25T10:03:37;12.45;;;3.75;;
29774;SDS011;16676;51.202;6.774;2024-01-25T10:07:41;12.05;;;3.67;;
29774;SDS011;16676;51.202;6.774;2024-01-25T10:11:45;12.38;;;3.88;;
29774;SDS011;16676;51.202;6.774;2024-01-25T10:15:47;11.55;;;3.85;;
29774;SDS011;16676;51.202;6.774;2024-01-25T10:19:49;11.98;;;3.67;;
29774;SDS011;16676;51.202;6.774;2024-01-25T10:23:51;11.52;;;3.40;;
29774;SDS011;16676;51.202;6.774;2024-01-25T10:27:57;12.27;;;4.00;;
29774;SDS011;16676;51.202;6.774;2024-01-25T10:31:59;8.57;;;3.15;;
29774;SDS011;16676;51.202;6.774;2024-01-25T10:36:01;9.98;;;3.40;;
29774;SDS011;16676;51.202;6.774;2024-01-25T10:40:03;10.35;;;3.05;;
29774;SDS011;16676;51.202;6.774;2024-01-25T10:44:08;10.80;;;3.47;;
29774;SDS011;16676;51.202;6.774;2024-01-25T10:48:10;8.57;;;3.08;;
29774;SDS011;16676;51.202;6.774;2024-01-25T10:52:12;9.30;;;3.35;;
29774;SDS011;16676;51.202;6.774;2024-01-25T10:56:14;10.25;;;3.17;;
29774;SDS011;16676;51.202;6.774;2024-01-25T11:00:18;9.23;;;3.67;;
29774;SDS011;16676;51.202;6.774;2024-01-25T11:04:20;10.48;;;3.40;;
29774;SDS011;16676;51.202;6.774;2024-01-25T11:08:23;8.52;;;3.10;;
29774;SDS011;16676;51.202;6.774;2024-01-25T11:12:25;8.57;;;2.88;;
29774;SDS011;16676;51.202;6.774;2024-01-25T11:16:29;7.90;;;2.92;;
29774;SDS011;16676;51.202;6.774;2024-01-25T11:20:34;7.40;;;2.63;;
29774;SDS011;16676;51.202;6.774;2024-01-25T11:24:38;6.93;;;2.50;;
29774;SDS011;16676;51.202;6.774;2024-01-25T11:28:40;7.45;;;2.83;;
29774;SDS011;16676;51.202;6.774;2024-01-25T11:32:43;6.88;;;2.65;;
29774;SDS011;16676;51.202;6.774;2024-01-25T11:36:45;7.30;;;2.80;;
29774;SDS011;16676;51.202;6.774;2024-01-25T11:40:47;7.35;;;2.40;;
29774;SDS011;16676;51.202;6.774;2024-01-25T11:44:49;9.25;;;2.88;;
29774;SDS011;16676;51.202;6.774;2024-01-25T11:48:52;7.13;;;2.78;;
29774;SDS011;16676;51.202;6.774;2024-01-25T11:52:54;7.05;;;2.30;;
29774;SDS011;16676;51.202;6.774;2024-01-25T11:56:56;7.05;;;2.38;;
29774;SDS011;16676;51.202;6.774;2024-01-25T12:00:58;7.53;;;2.63;;
29774;SDS011;16676;51.202;6.774;2024-01-25T12:05:03;7.75;;;2.53;;
29774;SDS011;16676;51.202;6.774;2024-01-25T12:09:06;7.15;;;2.53;;
29774;SDS011;16676;51.202;6.774;2024-01-25T12:13:09;57.97;;;16.63;;
29774;SDS011;16676;51.202;6.774;2024-01-25T12:17:11;57.30;;;17.35;;
29774;SDS011;16676;51.202;6.774;2024-01-25T12:21:14;58.42;;;17.65;;
29774;SDS011;16676;51.202;6.774;2024-01-25T12:25:16;67.13;;;19.27;;
29774;SDS011;16676;51.202;6.774;2024-01-25T12:29:18;63.35;;;19.23;;
29774;SDS011;16676;51.202;6.774;2024-01-25T12:33:21;49.95;;;16.60;;
29774;SDS011;16676;51.202;6.774;2024-01-25T12:37:24;41.58;;;13.85;;
29774;SDS011;16676;51.202;6.774;2024-01-25T12:41:26;32.45;;;11.20;;
29774;SDS011;16676;51.202;6.774;2024-01-25T12:45:28;29.00;;;10.90;;
29774;SDS011;16676;51.202;6.774;2024-01-25T12:49:30;32.50;;;11.20;;
29774;SDS011;16676;51.202;6.774;2024-01-25T12:53:33;38.90;;;11.82;;
29774;SDS011;16676;51.202;6.774;2024-01-25T12:57:35;32.10;;;10.88;;
29774;SDS011;16676;51.202;6.774;2024-01-25T13:01:37;33.75;;;10.27;;
29774;SDS011;16676;51.202;6.774;2024-01-25T13:05:39;29.58;;;8.77;;
29774;SDS011;16676;51.202;6.774;2024-01-25T13:09:42;34.35;;;9.70;;
29774;SDS011;16676;51.202;6.774;2024-01-25T13:13:45;28.83;;;9.55;;
29774;SDS011;16676;51.202;6.774;2024-01-25T13:17:47;29.65;;;9.07;;
29774;SDS011;16676;51.202;6.774;2024-01-25T13:21:49;31.23;;;9.63;;
29774;SDS011;16676;51.202;6.774;2024-01-25T13:25:52;31.60;;;8.90;;
29774;SDS011;16676;51.202;6.774;2024-01-25T13:29:54;28.98;;;8.85;;
29774;SDS011;16676;51.202;6.774;2024-01-25T13:33:57;27.58;;;8.02;;
29774;SDS011;16676;51.202;6.774;2024-01-25T13:37:59;28.58;;;8.77;;
29774;SDS011;16676;51.202;6.774;2024-01-25T13:42:03;21.75;;;8.07;;
29774;SDS011;16676;51.202;6.774;2024-01-25T13:46:05;23.15;;;8.00;;
29774;SDS011;16676;51.202;6.774;2024-01-25T13:50:07;22.88;;;7.55;;
29774;SDS011;16676;51.202;6.774;2024-01-25T13:54:09;27.55;;;8.15;;
29774;SDS011;16676;51.202;6.774;2024-01-25T13:58:13;21.10;;;6.95;;
29774;SDS011;16676;51.202;6.774;2024-01-25T14:02:15;20.08;;;7.03;;
29774;SDS011;16676;51.202;6.774;2024-01-25T14:06:16;23.45;;;6.55;;
29774;SDS011;16676;51.202;6.774;2024-01-25T14:10:18;21.30;;;6.95;;
29774;SDS011;16676;51.202;6.774;2024-01-25T14:14:22;22.27;;;7.75;;
29774;SDS011;16676;51.202;6.774;2024-01-25T14:18:24;20.73;;;7.30;;
29774;SDS011;16676;51.202;6.774;2024-01-25T14:22:26;20.52;;;6.68;;
29774;SDS011;16676;51.202;6.774;2024-01-25T14:26:28;21.60;;;6.85;;
29774;SDS011;16676;51.202;6.774;2024-01-25T14:30:31;21.40;;;7.32;;
29774;SDS011;16676;51.202;6.774;2024-01-25T14:34:33;17.60;;;5.68;;
29774;SDS011;16676;51.202;6.774;2024-01-25T14:38:35;21.42;;;6.95;;
29774;SDS011;16676;51.202;6.774;2024-01-25T14:42:37;17.25;;;6.45;;
29774;SDS011;16676;51.202;6.774;2024-01-25T14:46:40;16.33;;;5.93;;
29774;SDS011;16676;51.202;6.774;2024-01-25T14:50:42;14.10;;;5.25;;
29774;SDS011;16676;51.202;6.774;2024-01-25T14:54:44;18.58;;;6.10;;
29774;SDS011;16676;51.202;6.774;2024-01-25T14:58:46;16.55;;;5.70;;
29774;SDS011;16676;51.202;6.774;2024-01-25T15:02:50;15.32;;;5.28;;
29774;SDS011;16676;51.202;6.774;2024-01-25T15:06:52;17.35;;;5.15;;
29774;SDS011;16676;51.202;6.774;2024-01-25T15:10:54;14.65;;;4.65;;
29774;SDS011;16676;51.202;6.774;2024-01-25T15:14:55;13.70;;;5.05;;
29774;SDS011;16676;51.202;6.774;2024-01-25T15:18:59;16.52;;;4.90;;
29774;SDS011;16676;51.202;6.774;2024-01-25T15:23:01;16.88;;;5.25;;
29774;SDS011;16676;51.202;6.774;2024-01-25T15:27:03;14.93;;;4.70;;
29774;SDS011;16676;51.202;6.774;2024-01-25T15:31:06;15.43;;;4.53;;
29774;SDS011;16676;51.202;6.774;2024-01-25T15:35:10;13.82;;;4.57;;
29774;SDS011;16676;51.202;6.774;2024-01-25T15:39:12;15.85;;;4.78;;
29774;SDS011;16676;51.202;6.774;2024-01-25T15:43:14;16.05;;;4.75;;
29774;SDS011;16676;51.202;6.774;2024-01-25T15:47:16;12.55;;;4.10;;
29774;SDS011;16676;51.202;6.774;2024-01-25T15:51:19;11.48;;;4.68;;
29774;SDS011;16676;51.202;6.774;2024-01-25T15:55:22;11.82;;;4.40;;
29774;SDS011;16676;51.202;6.774;2024-01-25T15:59:24;13.07;;;4.90;;
29774;SDS011;16676;51.202;6.774;2024-01-25T16:03:26;12.20;;;4.43;;
29774;SDS011;16676;51.202;6.774;2024-01-25T16:07:29;12.32;;;4.57;;
29774;SDS011;16676;51.202;6.774;2024-01-25T16:11:32;14.55;;;4.22;;
29774;SDS011;16676;51.202;6.774;2024-01-25T16:15:34;13.02;;;4.40;;
29774;SDS011;16676;51.202;6.774;2024-01-25T16:19:35;15.02;;;4.38;;
29774;SDS011;16676;51.202;6.774;2024-01-25T16:23:39;11.40;;;4.03;;
29774;SDS011;16676;51.202;6.774;2024-01-25T16:27:41;13.30;;;4.80;;
29774;SDS011;16676;51.202;6.774;2024-01-25T16:31:43;10.57;;;4.00;;
29774;SDS011;16676;51.202;6.774;2024-01-25T16:35:45;12.00;;;4.85;;
29774;SDS011;16676;51.202;6.774;2024-01-25T16:39:48;13.20;;;4.28;;
29774;SDS011;16676;51.202;6.774;2024-01-25T16:43:50;10.75;;;4.05;;
29774;SDS011;16676;51.202;6.774;2024-01-25T16:47:52;9.95;;;4.18;;
29774;SDS011;16676;51.202;6.774;2024-01-25T16:51:54;10.40;;;4.10;;
29774;SDS011;16676;51.202;6.774;2024-01-25T16:55:57;8.48;;;3.83;;
29774;SDS011;16676;51.202;6.774;2024-01-25T16:59:59;14.15;;;4.20;;
29774;SDS011;16676;51.202;6.774;2024-01-25T17:04:01;10.93;;;3.97;;
29774;SDS011;16676;51.202;6.774;2024-01-25T17:08:06;15.15;;;4.43;;
29774;SDS011;16676;51.202;6.774;2024-01-25T17:12:09;14.48;;;4.40;;
29774;SDS011;16676;51.202;6.774;2024-01-25T17:16:14;8.52;;;3.60;;
29774;SDS011;16676;51.202;6.774;2024-01-25T17:20:16;11.27;;;4.10;;
29774;SDS011;16676;51.202;6.774;2024-01-25T17:24:19;13.07;;;4.32;;
29774;SDS011;16676;51.202;6.774;2024-01-25T17:28:22;11.82;;;3.85;;
29774;SDS011;16676;51.202;6.774;2024-01-25T17:32:24;14.60;;;4.32;;
29774;SDS011;16676;51.202;6.774;2024-01-25T17:36:27;9.98;;;3.78;;
29774;SDS011;16676;51.202;6.774;2024-01-25T17:40:29;11.60;;;3.60;;
29774;SDS011;16676;51.202;6.774;2024-01-25T17:44:32;10.15;;;3.30;;
29774;SDS011;16676;51.202;6.774;2024-01-25T17:48:34;8.20;;;3.25;;
29774;SDS011;16676;51.202;6.774;2024-01-25T17:52:36;9.02;;;3.55;;
29774;SDS011;16676;51.202;6.774;2024-01-25T17:56:39;10.90;;;4.07;;
29774;SDS011;16676;51.202;6.774;2024-01-25T18:00:42;9.75;;;3.65;;
29774;SDS011;16676;51.202;6.774;2024-01-25T18:04:44;10.05;;;3.95;;
29774;SDS011;16676;51.202;6.774;2024-01-25T18:08:46;12.35;;;3.58;;
29774;SDS011;16676;51.202;6.774;2024-01-25T18:12:48;8.52;;;3.42;;
29774;SDS011;16676;51.202;6.774;2024-01-25T18:16:51;6.28;;;3.00;;
29774;SDS011;16676;51.202;6.774;2024-01-25T18:20:53;9.68;;;3.38;;
29774;SDS011;16676;51.202;6.774;2024-01-25T18:24:55;8.90;;;3.40;;
29774;SDS011;16676;51.202;6.774;2024-01-25T18:28:57;9.00;;;3.92;;
29774;SDS011;16676;51.202;6.774;2024-01-25T18:33:00;11.77;;;3.60;;
29774;SDS011;16676;51.202;6.774;2024-01-25T18:37:02;11.35;;;3.38;;
29774;SDS011;16676;51.202;6.774;2024-01-25T18:41:04;7.45;;;3.30;;
29774;SDS011;16676;51.202;6.774;2024-01-25T18:45:09;8.77;;;3.70;;
29774;SDS011;16676;51.202;6.774;2024-01-25T18:49:13;10.27;;;3.50;;
29774;SDS011;16676;51.202;6.774;2024-01-25T18:53:15;11.45;;;3.20;;
29774;SDS011;16676;51.202;6.774;2024-01-25T18:57:19;11.32;;;3.47;;
29774;SDS011;16676;51.202;6.774;2024-01-25T19:01:21;12.57;;;3.70;;
29774;SDS011;16676;51.202;6.774;2024-01-25T19:05:25;13.82;;;3.75;;
29774;SDS011;16676;51.202;6.774;2024-01-25T19:09:28;15.90;;;3.67;;
29774;SDS011;16676;51.202;6.774;2024-01-25T19:13:30;14.93;;;3.35;;
29774;SDS011;16676;51.202;6.774;2024-01-25T19:17:32;12.85;;;3.40;;
29774;SDS011;16676;51.202;6.774;2024-01-25T19:21:35;11.38;;;2.97;;
29774;SDS011;16676;51.202;6.774;2024-01-25T19:25:37;11.90;;;3.72;;
29774;SDS011;16676;51.202;6.774;2024-01-25T19:29:39;12.00;;;3.75;;
29774;SDS011;16676;51.202;6.774;2024-01-25T19:33:41;8.68;;;3.10;;
29774;SDS011;16676;51.202;6.774;2024-01-25T19:37:45;8.90;;;3.30;;
29774;SDS011;16676;51.202;6.774;2024-01-25T19:41:47;8.15;;;2.95;;
29774;SDS011;16676;51.202;6.774;2024-01-25T19:45:49;7.18;;;2.97;;
29774;SDS011;16676;51.202;6.774;2024-01-25T19:49:51;14.60;;;3.53;;
29774;SDS011;16676;51.202;6.774;2024-01-25T19:53:54;13.10;;;3.60;;
29774;SDS011;16676;51.202;6.774;2024-01-25T19:57:58;10.75;;;3.85;;
29774;SDS011;16676;51.202;6.774;2024-01-25T20:02:01;16.33;;;4.15;;
29774;SDS011;16676;51.202;6.774;2024-01-25T20:10:11;10.40;;;3.28;;
29774;SDS011;16676;51.202;6.774;2024-01-25T20:14:13;10.15;;;3.15;;
29774;SDS011;16676;51.202;6.774;2024-01-25T20:18:15;8.52;;;3.13;;
29774;SDS011;16676;51.202;6.774;2024-01-25T20:22:17;9.27;;;3.50;;
29774;SDS011;16676;51.202;6.774;2024-01-25T20:26:20;10.15;;;2.85;;
29774;SDS011;16676;51.202;6.774;2024-01-25T20:30:22;8.75;;;2.72;;
29774;SDS011;16676;51.202;6.774;2024-01-25T20:34:27;11.77;;;3.40;;
29774;SDS011;16676;51.202;6.774;2024-01-25T20:38:31;9.90;;;3.05;;
29774;SDS011;16676;51.202;6.774;2024-01-25T20:42:34;8.27;;;2.95;;
29774;SDS011;16676;51.202;6.774;2024-01-25T20:46:36;10.30;;;3.08;;
29774;SDS011;16676;51.202;6.774;2024-01-25T20:50:38;6.55;;;2.70;;
29774;SDS011;16676;51.202;6.774;2024-01-25T20:54:40;5.85;;;2.58;;
29774;SDS011;16676;51.202;6.774;2024-01-25T20:58:43;8.80;;;2.83;;
29774;SDS011;16676;51.202;6.774;2024-01-25T21:02:46;8.85;;;2.63;;
29774;SDS011;16676;51.202;6.774;2024-01-25T21:06:49;8.43;;;2.95;;
29774;SDS011;16676;51.202;6.774;2024-01-25T21:10:51;13.10;;;3.08;;
29774;SDS011;16676;51.202;6.774;2024-01-25T21:14:55;14.20;;;4.97;;
29774;SDS011;16676;51.202;6.774;2024-01-25T21:18:57;12.98;;;4.25;;
29774;SDS011;16676;51.202;6.774;2024-01-25T21:22:59;15.10;;;6.25;;
29774;SDS011;16676;51.202;6.774;2024-01-25T21:27:02;15.40;;;6.20;;
29774;SDS011;16676;51.202;6.774;2024-01-25T21:31:05;19.70;;;7.40;;
29774;SDS011;16676;51.202;6.774;2024-01-25T21:35:08;21.42;;;6.80;;
29774;SDS011;16676;51.202;6.774;2024-01-25T21:39:10;18.58;;;5.68;;
29774;SDS011;16676;51.202;6.774;2024-01-25T21:43:12;15.07;;;5.45;;
29774;SDS011;16676;51.202;6.774;2024-01-25T21:47:15;14.52;;;5.63;;
29774;SDS011;16676;51.202;6.774;2024-01-25T21:51:17;13.77;;;5.32;;
29774;SDS011;16676;51.202;6.774;2024-01-25T21:55:19;15.93;;;5.28;;
29774;SDS011;16676;51.202;6.774;2024-01-25T21:59:21;20.70;;;5.78;;
29774;SDS011;16676;51.202;6.774;2024-01-25T22:03:24;16.25;;;5.47;;
29774;SDS011;16676;51.202;6.774;2024-01-25T22:07:26;14.45;;;5.25;;
29774;SDS011;16676;51.202;6.774;2024-01-25T22:11:28;11.52;;;4.60;;
29774;SDS011;16676;51.202;6.774;2024-01-25T22:15:30;15.00;;;5.40;;
29774;SDS011;16676;51.202;6.774;2024-01-25T22:19:34;15.40;;;4.90;;
29774;SDS011;16676;51.202;6.774;2024-01-25T22:23:35;14.63;;;5.72;;
29774;SDS011;16676;51.202;6.774;2024-01-25T22:27:37;13.40;;;4.93;;
29774;SDS011;16676;51.202;6.774;2024-01-25T22:31:39;11.43;;;4.85;;
29774;SDS011;16676;51.202;6.774;2024-01-25T22:35:43;12.38;;;4.55;;
29774;SDS011;16676;51.202;6.774;2024-01-25T22:39:45;11.70;;;4.72;;
29774;SDS011;16676;51.202;6.774;2024-01-25T22:43:47;12.43;;;4.97;;
29774;SDS011;16676;51.202;6.774;2024-01-25T22:47:49;14.20;;;5.35;;
29774;SDS011;16676;51.202;6.774;2024-01-25T22:51:52;13.25;;;4.90;;
29774;SDS011;16676;51.202;6.774;2024-01-25T22:55:54;10.93;;;4.25;;
29774;SDS011;16676;51.202;6.774;2024-01-25T22:59:56;11.27;;;3.85;;
29774;SDS011;16676;51.202;6.774;2024-01-25T23:03:58;9.95;;;4.05;;
29774;SDS011;16676;51.202;6.774;2024-01-25T23:08:01;8.45;;;4.25;;
29774;SDS011;16676;51.202;6.774;2024-01-25T23:12:03;10.38;;;4.45;;
29774;SDS011;16676;51.202;6.774;2024-01-25T23:16:06;10.55;;;3.80;;
29774;SDS011;16676;51.202;6.774;2024-01-25T23:20:08;10.43;;;4.10;;
29774;SDS011;16676;51.202;6.774;2024-01-25T23:24:12;11.93;;;4.00;;
29774;SDS011;16676;51.202;6.774;2024-01-25T23:28:14;11.52;;;4.63;;
29774;SDS011;16676;51.202;6.774;2024-01-25T23:32:16;9.40;;;4.18;;
29774;SDS011;16676;51.202;6.774;2024-01-25T23:36:18;11.02;;;4.15;;
29774;SDS011;16676;51.202;6.774;2024-01-25T23:40:21;7.72;;;3.60;;
29774;SDS011;16676;51.202;6.774;2024-01-25T23:44:24;6.85;;;3.53;;
29774;SDS011;16676;51.202;6.774;2024-01-25T23:48:26;10.90;;;3.83;;
29774;SDS011;16676;51.202;6.774;2024-01-25T23:52:28;10.77;;;3.92;;
29774;SDS011;16676;51.202;6.774;2024-01-25T23:56:31;10.07;;;4.05;;
